createdAt,value
2023-03-02T00:02:11.875Z,-2.06
2023-03-02T00:04:46.897Z,-2.02
2023-03-02T00:07:18.563Z,-2.09
2023-03-02T00:09:45.914Z,-2.07
2023-03-02T00:12:13.594Z,-1.83
2023-03-02T00:14:40.925Z,-1.63
2023-03-02T00:17:12.728Z,-1.46
2023-03-02T00:19:40.243Z,-1.43
2023-03-02T00:22:09.005Z,-1.43
2023-03-02T00:24:38.721Z,-1.44
2023-03-02T00:27:05.807Z,-1.44
2023-03-02T00:29:35.551Z,-1.44
2023-03-02T00:32:08.361Z,-1.38
2023-03-02T00:34:36.131Z,-1.37
2023-03-02T00:37:03.309Z,-1.43
2023-03-02T00:39:30.501Z,-1.52
2023-03-02T00:42:06.949Z,-1.48
2023-03-02T00:44:38.141Z,-1.42
2023-03-02T00:47:05.388Z,-1.54
2023-03-02T00:49:32.498Z,-1.98
2023-03-02T00:52:03.326Z,-2.33
2023-03-02T00:54:30.462Z,-2.61
2023-03-02T00:56:58.269Z,-2.80
2023-03-02T00:59:28.687Z,-2.99
2023-03-02T01:02:09.032Z,-3.07
2023-03-02T01:04:39.185Z,-2.99
2023-03-02T01:07:12.258Z,-3.09
2023-03-02T01:09:41.166Z,-3.08
2023-03-02T01:12:11.021Z,-2.98
2023-03-02T01:14:39.894Z,-3.04
2023-03-02T01:17:07.784Z,-2.88
2023-03-02T01:19:39.530Z,-2.53
2023-03-02T01:22:10.143Z,-2.42
2023-03-02T01:24:37.289Z,-2.22
2023-03-02T01:27:04.567Z,-2.15
2023-03-02T01:29:31.685Z,-2.16
2023-03-02T01:32:00.081Z,-2.28
2023-03-02T01:34:28.767Z,-2.51
2023-03-02T01:36:55.939Z,-2.83
2023-03-02T01:39:23.627Z,-3.13
2023-03-02T01:41:54.994Z,-3.31
2023-03-02T01:44:42.432Z,-3.45
2023-03-02T01:47:18.718Z,-3.45
2023-03-02T01:50:04.695Z,-3.54
2023-03-02T01:52:38.415Z,-3.63
2023-03-02T01:55:12.834Z,-3.71
2023-03-02T01:57:44.259Z,-3.79
2023-03-02T02:00:21.679Z,-3.85
2023-03-02T02:02:51.548Z,-3.91
2023-03-02T02:05:26.945Z,-3.95
2023-03-02T02:07:54.215Z,-3.96
2023-03-02T02:10:21.365Z,-3.95
2023-03-02T02:12:48.481Z,-3.90
2023-03-02T02:15:15.688Z,-3.89
2023-03-02T02:17:42.815Z,-3.91
2023-03-02T02:20:32.133Z,-3.98
2023-03-02T02:23:14.602Z,-3.96
2023-03-02T02:25:53.685Z,-3.90
2023-03-02T02:28:32.989Z,-3.66
2023-03-02T02:31:16.104Z,-3.61
2023-03-02T02:33:46.830Z,-3.55
2023-03-02T02:36:25.557Z,-3.56
2023-03-02T02:38:56.372Z,-3.57
2023-03-02T02:41:28.754Z,-3.64
2023-03-02T02:43:56.535Z,-3.73
2023-03-02T02:46:24.822Z,-3.81
2023-03-02T02:48:52.848Z,-3.82
2023-03-02T02:51:26.066Z,-3.85
2023-03-02T02:53:58.944Z,-3.90
2023-03-02T02:56:33.681Z,-3.89
2023-03-02T02:59:07.002Z,-3.90
2023-03-02T03:01:34.943Z,-3.92
2023-03-02T03:04:04.801Z,-3.91
2023-03-02T03:06:42.231Z,-3.97
2023-03-02T03:09:12.297Z,-4.04
2023-03-02T03:11:56.668Z,-4.11
2023-03-02T03:14:29.246Z,-4.07
2023-03-02T03:16:56.959Z,-4.08
2023-03-02T03:19:27.675Z,-4.16
2023-03-02T03:21:58.185Z,-4.30
2023-03-02T03:24:29.410Z,-4.12
2023-03-02T03:26:58.945Z,-4.18
2023-03-02T03:29:29.231Z,-4.19
2023-03-02T03:32:01.581Z,-4.26
2023-03-02T03:34:30.376Z,-4.27
2023-03-02T03:37:01.988Z,-4.15
2023-03-02T03:39:34.142Z,-4.04
2023-03-02T03:42:02.032Z,-4.04
2023-03-02T03:44:30.016Z,-4.10
2023-03-02T03:46:57.754Z,-3.89
2023-03-02T03:49:25.697Z,-3.88
2023-03-02T03:51:53.225Z,-3.75
2023-03-02T03:54:21.032Z,-3.88
2023-03-02T03:56:53.243Z,-3.86
2023-03-02T03:59:25.121Z,-3.80
2023-03-02T04:02:03.493Z,-3.94
2023-03-02T04:04:35.605Z,-4.10
2023-03-02T04:07:10.368Z,-4.23
2023-03-02T04:09:39.288Z,-4.31
2023-03-02T04:12:09.960Z,-4.41
2023-03-02T04:14:39.049Z,-4.51
2023-03-02T04:17:07.197Z,-4.62
2023-03-02T04:19:38.041Z,-4.68
2023-03-02T04:22:05.954Z,-4.68
2023-03-02T04:24:34.182Z,-4.64
2023-03-02T04:27:04.302Z,-4.58
2023-03-02T04:29:36.041Z,-4.61
2023-03-02T04:32:07.949Z,-4.61
2023-03-02T04:34:37.728Z,-4.59
2023-03-02T04:37:05.503Z,-4.61
2023-03-02T04:39:33.553Z,-4.66
2023-03-02T04:42:00.980Z,-4.66
2023-03-02T04:44:30.825Z,-4.66
2023-03-02T04:46:58.306Z,-4.60
2023-03-02T04:49:25.603Z,-4.47
2023-03-02T04:51:53.157Z,-4.58
2023-03-02T04:54:24.085Z,-4.62
2023-03-02T04:56:55.033Z,-4.61
2023-03-02T04:59:28.114Z,-4.62
2023-03-02T05:01:58.048Z,-4.68
2023-03-02T05:04:25.691Z,-4.74
2023-03-02T05:06:52.908Z,-4.76
2023-03-02T05:09:20.216Z,-4.78
2023-03-02T05:11:47.490Z,-4.84
2023-03-02T05:14:14.582Z,-4.93
2023-03-02T05:16:42.279Z,-5.02
2023-03-02T05:19:10.414Z,-5.08
2023-03-02T05:21:37.914Z,-5.04
2023-03-02T05:24:05.716Z,-5.02
2023-03-02T05:26:34.135Z,-5.05
2023-03-02T05:29:01.541Z,-5.07
2023-03-02T05:31:36.384Z,-5.15
2023-03-02T05:34:06.865Z,-5.18
2023-03-02T05:36:35.593Z,-5.20
2023-03-02T05:39:04.964Z,-5.25
2023-03-02T05:41:32.423Z,-5.22
2023-03-02T05:43:59.871Z,-5.26
2023-03-02T05:46:27.830Z,-5.27
2023-03-02T05:48:57.954Z,-5.22
2023-03-02T05:51:25.107Z,-5.25
2023-03-02T05:53:52.301Z,-5.18
2023-03-02T05:56:24.827Z,-5.12
2023-03-02T05:58:52.514Z,-5.09
2023-03-02T06:01:19.904Z,-5.06
2023-03-02T06:03:47.211Z,-4.99
2023-03-02T06:06:15.836Z,-4.90
2023-03-02T06:08:44.484Z,-4.78
2023-03-02T06:11:12.563Z,-4.69
2023-03-02T06:13:42.415Z,-4.73
2023-03-02T06:16:10.129Z,-4.66
2023-03-02T06:18:41.654Z,-4.60
2023-03-02T06:21:09.965Z,-4.52
2023-03-02T06:23:37.034Z,-4.53
2023-03-02T06:26:09.317Z,-4.49
2023-03-02T06:28:49.740Z,-4.37
2023-03-02T06:31:18.929Z,-4.11
2023-03-02T06:33:47.006Z,-3.93
2023-03-02T06:36:15.112Z,-3.82
2023-03-02T06:38:42.331Z,-3.72
2023-03-02T06:41:09.670Z,-3.65
2023-03-02T06:43:36.774Z,-3.57
2023-03-02T06:46:04.157Z,-3.56
2023-03-02T06:48:31.490Z,-3.63
2023-03-02T06:50:58.864Z,-3.67
2023-03-02T06:53:26.341Z,-3.63
2023-03-02T06:55:53.776Z,-3.56
2023-03-02T06:58:23.751Z,-3.63
2023-03-02T07:00:54.112Z,-3.64
2023-03-02T07:03:23.179Z,-3.64
2023-03-02T07:05:56.298Z,-3.68
2023-03-02T07:08:28.306Z,-3.54
2023-03-02T07:10:58.371Z,-3.44
2023-03-02T07:13:25.982Z,-3.54
2023-03-02T07:15:54.989Z,-3.44
2023-03-02T07:18:22.084Z,-3.34
2023-03-02T07:20:49.180Z,-3.13
2023-03-02T07:23:19.435Z,-3.05
2023-03-02T07:25:52.249Z,-2.91
2023-03-02T07:28:21.895Z,-2.80
2023-03-02T07:30:49.249Z,-2.64
2023-03-02T07:33:19.648Z,-2.55
2023-03-02T07:35:48.229Z,-2.34
2023-03-02T07:38:15.710Z,-2.08
2023-03-02T07:40:43.764Z,-1.89
2023-03-02T07:43:11.470Z,-1.63
2023-03-02T07:45:38.863Z,-1.61
2023-03-02T07:48:08.955Z,-1.37
2023-03-02T07:50:41.511Z,-1.09
2023-03-02T07:53:08.957Z,-0.63
2023-03-02T07:55:40.995Z,-0.46
2023-03-02T07:58:19.613Z,-0.02
2023-03-02T08:00:47.353Z,0.41
2023-03-02T08:03:14.767Z,0.90
2023-03-02T08:05:45.207Z,1.19
2023-03-02T08:08:14.306Z,0.64
2023-03-02T08:10:41.459Z,0.80
2023-03-02T08:13:08.729Z,0.73
2023-03-02T08:15:38.918Z,0.38
2023-03-02T08:18:08.912Z,0.45
2023-03-02T08:20:38.582Z,0.18
2023-03-02T08:23:06.348Z,1.21
2023-03-02T08:25:38.543Z,2.20
2023-03-02T08:28:05.719Z,3.34
2023-03-02T08:30:32.773Z,4.05
2023-03-02T08:33:06.687Z,4.68
2023-03-02T08:35:34.317Z,4.62
2023-03-02T08:38:01.487Z,4.18
2023-03-02T08:40:30.876Z,3.92
2023-03-02T08:42:58.998Z,4.17
2023-03-02T08:45:34.422Z,3.97
2023-03-02T08:48:03.897Z,3.45
2023-03-02T08:50:31.696Z,3.17
2023-03-02T08:52:58.784Z,3.34
2023-03-02T08:55:25.985Z,3.43
2023-03-02T08:57:54.378Z,3.59
2023-03-02T09:00:21.595Z,3.59
2023-03-02T09:02:48.674Z,4.96
2023-03-02T09:05:15.846Z,3.70
2023-03-02T09:07:42.970Z,3.67
2023-03-02T09:10:13.318Z,4.04
2023-03-02T09:12:40.575Z,3.82
2023-03-02T09:15:07.988Z,4.24
2023-03-02T09:17:35.105Z,4.56
2023-03-02T09:20:02.399Z,5.61
2023-03-02T09:22:31.238Z,6.11
2023-03-02T09:25:08.954Z,6.19
2023-03-02T09:27:36.361Z,6.30
2023-03-02T09:30:03.700Z,7.15
2023-03-02T09:32:34.366Z,7.56
2023-03-02T09:35:01.564Z,7.65
2023-03-02T09:37:29.068Z,7.12
2023-03-02T09:39:56.531Z,7.17
2023-03-02T09:42:44.241Z,6.47
2023-03-02T09:45:38.922Z,6.41
2023-03-02T09:48:21.072Z,6.67
2023-03-02T09:51:01.743Z,6.66
2023-03-02T09:53:37.043Z,7.26
2023-03-02T09:56:14.108Z,6.94
2023-03-02T09:58:45.249Z,6.23
2023-03-02T10:01:17.182Z,6.09
2023-03-02T10:03:51.406Z,5.82
2023-03-02T10:06:18.586Z,5.32
2023-03-02T10:08:45.822Z,5.58
2023-03-02T10:11:33.373Z,5.57
2023-03-02T10:14:08.548Z,6.29
2023-03-02T10:16:49.468Z,6.30
2023-03-02T10:19:16.919Z,5.88
2023-03-02T10:21:51.794Z,6.20
2023-03-02T10:24:45.171Z,5.85
2023-03-02T10:27:12.623Z,6.14
2023-03-02T10:30:10.689Z,5.92
2023-03-02T10:32:53.279Z,6.00
2023-03-02T10:35:32.128Z,5.99
2023-03-02T10:38:23.888Z,6.27
2023-03-02T10:41:00.127Z,6.57
2023-03-02T10:43:35.994Z,6.35
2023-03-02T10:46:08.658Z,6.43
2023-03-02T10:48:58.171Z,6.49
2023-03-02T10:51:29.243Z,6.35
2023-03-02T10:54:11.853Z,5.98
2023-03-02T10:56:47.952Z,6.33
2023-03-02T10:59:44.535Z,6.48
2023-03-02T11:02:14.620Z,6.52
2023-03-02T11:04:41.945Z,6.44
2023-03-02T11:07:35.829Z,6.55
2023-03-02T11:10:07.382Z,6.52
2023-03-02T11:12:36.960Z,6.41
2023-03-02T11:15:25.516Z,6.38
2023-03-02T11:18:01.330Z,6.24
2023-03-02T11:20:34.158Z,6.66
2023-03-02T11:23:31.101Z,6.70
2023-03-02T11:26:09.293Z,6.84
2023-03-02T11:28:49.203Z,6.88
2023-03-02T11:31:44.870Z,6.74
2023-03-02T11:34:20.945Z,6.80
2023-03-02T11:36:50.906Z,6.82
2023-03-02T11:39:25.188Z,6.74
2023-03-02T11:41:53.946Z,6.60
2023-03-02T11:44:24.236Z,6.80
2023-03-02T11:47:00.851Z,6.79
2023-03-02T11:49:45.925Z,6.61
2023-03-02T11:52:21.844Z,6.57
2023-03-02T11:54:56.498Z,6.82
2023-03-02T11:57:39.797Z,6.85
2023-03-02T12:00:22.594Z,6.76
2023-03-02T12:02:59.890Z,6.56
2023-03-02T12:05:59.639Z,6.41
2023-03-02T12:09:13.495Z,6.60
2023-03-02T12:11:45.505Z,6.65
2023-03-02T12:14:38.097Z,6.73
2023-03-02T12:17:18.788Z,6.95
2023-03-02T12:19:46.764Z,6.66
2023-03-02T12:22:15.367Z,6.62
2023-03-02T12:24:44.898Z,6.75
2023-03-02T12:27:25.581Z,6.90
2023-03-02T12:30:09.837Z,6.78
2023-03-02T12:32:40.425Z,7.07
2023-03-02T12:35:07.476Z,7.02
2023-03-02T12:37:57.294Z,6.99
2023-03-02T12:40:40.453Z,6.89
2023-03-02T12:43:19.892Z,6.92
2023-03-02T12:46:28.744Z,6.88
2023-03-02T12:49:20.381Z,6.90
2023-03-02T12:51:50.728Z,6.99
2023-03-02T12:54:30.318Z,6.78
2023-03-02T12:57:21.912Z,6.67
2023-03-02T12:59:54.626Z,6.64
2023-03-02T13:02:27.594Z,6.66
2023-03-02T13:05:10.085Z,6.44
2023-03-02T13:08:05.979Z,6.32
2023-03-02T13:10:42.541Z,6.42
2023-03-02T13:13:20.964Z,6.45
2023-03-02T13:15:52.485Z,6.33
2023-03-02T13:18:21.357Z,6.29
2023-03-02T13:21:01.627Z,6.37
2023-03-02T13:23:36.064Z,6.32
2023-03-02T13:26:06.221Z,6.25
2023-03-02T13:28:36.186Z,6.25
2023-03-02T13:31:20.126Z,6.38
2023-03-02T13:33:50.489Z,6.25
2023-03-02T13:36:26.231Z,6.17
2023-03-02T13:38:59.617Z,6.17
2023-03-02T13:41:33.210Z,6.18
2023-03-02T13:44:19.786Z,6.15
2023-03-02T13:46:50.466Z,6.09
2023-03-02T13:49:33.051Z,6.05
2023-03-02T13:52:17.363Z,6.20
2023-03-02T13:54:48.112Z,6.13
2023-03-02T13:57:19.242Z,6.10
2023-03-02T13:59:46.376Z,6.13
2023-03-02T14:02:25.729Z,6.14
2023-03-02T14:04:53.822Z,6.18
2023-03-02T14:07:21.657Z,6.23
2023-03-02T14:09:49.307Z,6.23
2023-03-02T14:12:41.425Z,6.28
2023-03-02T14:15:14.717Z,6.30
2023-03-02T14:17:42.491Z,6.37
2023-03-02T14:20:13.198Z,6.36
2023-03-02T14:22:41.330Z,6.36
2023-03-02T14:25:08.801Z,6.33
2023-03-02T14:27:39.588Z,6.32
2023-03-02T14:30:24.316Z,6.34
2023-03-02T14:32:56.351Z,6.36
2023-03-02T14:35:25.471Z,6.32
2023-03-02T14:37:55.288Z,6.29
2023-03-02T14:40:28.714Z,6.41
2023-03-02T14:42:58.701Z,6.37
2023-03-02T14:45:25.790Z,6.33
2023-03-02T14:47:55.690Z,6.27
2023-03-02T14:50:23.690Z,6.15
2023-03-02T14:52:57.177Z,6.13
2023-03-02T14:55:31.503Z,6.12
2023-03-02T14:58:11.875Z,6.18
2023-03-02T15:00:39.150Z,6.11
2023-03-02T15:03:06.320Z,6.16
2023-03-02T15:05:33.528Z,6.20
2023-03-02T15:08:03.601Z,6.22
2023-03-02T15:10:31.913Z,6.14
2023-03-02T15:12:59.046Z,6.21
2023-03-02T15:15:27.284Z,6.24
2023-03-02T15:17:54.579Z,6.12
2023-03-02T15:20:24.214Z,6.08
2023-03-02T15:22:54.526Z,6.12
2023-03-02T15:25:24.012Z,6.16
2023-03-02T15:27:51.128Z,6.21
2023-03-02T15:30:18.826Z,6.22
2023-03-02T15:32:48.505Z,6.21
2023-03-02T15:35:18.325Z,6.13
2023-03-02T15:37:54.349Z,6.01
2023-03-02T15:40:21.502Z,6.07
2023-03-02T15:42:52.628Z,5.97
2023-03-02T15:45:19.901Z,5.88
2023-03-02T15:47:47.055Z,5.86
2023-03-02T15:50:14.340Z,5.81
2023-03-02T15:52:46.833Z,5.75
2023-03-02T15:55:22.609Z,5.61
2023-03-02T15:57:54.039Z,5.52
2023-03-02T16:00:21.411Z,5.56
2023-03-02T16:02:51.633Z,5.52
2023-03-02T16:05:18.787Z,5.51
2023-03-02T16:07:46.335Z,5.47
2023-03-02T16:10:16.490Z,5.40
2023-03-02T16:12:43.751Z,5.34
2023-03-02T16:15:11.314Z,5.25
2023-03-02T16:17:42.337Z,5.12
2023-03-02T16:20:10.048Z,5.07
2023-03-02T16:22:37.718Z,4.88
2023-03-02T16:25:05.210Z,4.76
2023-03-02T16:27:35.271Z,4.70
2023-03-02T16:30:02.676Z,4.61
2023-03-02T16:32:30.337Z,4.58
2023-03-02T16:34:57.556Z,4.50
2023-03-02T16:37:24.689Z,4.44
2023-03-02T16:39:52.017Z,4.39
2023-03-02T16:42:21.140Z,4.33
2023-03-02T16:44:49.794Z,4.32
2023-03-02T16:47:16.879Z,4.27
2023-03-02T16:49:44.027Z,4.38
2023-03-02T16:52:12.541Z,4.22
2023-03-02T16:54:46.049Z,4.26
2023-03-02T16:57:13.262Z,4.19
2023-03-02T16:59:41.015Z,4.10
2023-03-02T17:02:10.978Z,3.96
2023-03-02T17:04:41.082Z,3.88
2023-03-02T17:07:11.439Z,3.66
2023-03-02T17:09:42.386Z,3.52
2023-03-02T17:12:09.649Z,3.46
2023-03-02T17:14:36.729Z,3.40
2023-03-02T17:17:06.226Z,3.41
2023-03-02T17:19:35.470Z,3.38
2023-03-02T17:22:04.918Z,3.32
2023-03-02T17:24:33.020Z,3.37
2023-03-02T17:27:00.141Z,3.48
2023-03-02T17:29:27.695Z,3.26
2023-03-02T17:31:59.434Z,3.03
2023-03-02T17:34:31.184Z,2.65
2023-03-02T17:37:01.365Z,2.45
2023-03-02T17:39:32.125Z,2.33
2023-03-02T17:42:08.084Z,2.29
2023-03-02T17:44:45.827Z,2.24
2023-03-02T17:47:15.586Z,2.17
2023-03-02T17:49:46.582Z,2.03
2023-03-02T17:52:20.984Z,2.02
2023-03-02T17:54:48.261Z,2.00
2023-03-02T17:57:21.781Z,1.96
2023-03-02T17:59:50.451Z,1.89
2023-03-02T18:02:20.871Z,1.93
2023-03-02T18:04:58.643Z,1.90
2023-03-02T18:07:27.361Z,1.83
2023-03-02T18:09:54.917Z,1.89
2023-03-02T18:12:22.523Z,1.81
2023-03-02T18:14:54.160Z,1.86
2023-03-02T18:17:21.476Z,1.85
2023-03-02T18:19:52.196Z,1.77
2023-03-02T18:22:24.580Z,1.66
2023-03-02T18:24:55.321Z,1.69
2023-03-02T18:27:22.485Z,1.67
2023-03-02T18:29:51.470Z,1.57
2023-03-02T18:32:18.691Z,1.52
2023-03-02T18:34:48.890Z,1.66
2023-03-02T18:37:22.965Z,1.68
2023-03-02T18:39:50.360Z,1.73
2023-03-02T18:42:17.453Z,1.77
2023-03-02T18:44:45.317Z,1.64
2023-03-02T18:47:16.682Z,1.52
2023-03-02T18:49:45.660Z,1.56
2023-03-02T18:52:23.917Z,1.35
2023-03-02T18:54:57.351Z,1.36
2023-03-02T18:57:25.697Z,1.26
2023-03-02T18:59:53.108Z,1.31
2023-03-02T19:02:30.608Z,1.21
2023-03-02T19:04:58.176Z,1.16
2023-03-02T19:07:28.394Z,1.02
2023-03-02T19:09:55.606Z,0.93
2023-03-02T19:12:22.766Z,0.94
2023-03-02T19:14:49.893Z,0.88
2023-03-02T19:17:17.217Z,0.82
2023-03-02T19:19:49.408Z,0.69
2023-03-02T19:22:25.165Z,0.71
2023-03-02T19:24:55.967Z,0.69
2023-03-02T19:27:23.272Z,0.63
2023-03-02T19:29:50.368Z,0.52
2023-03-02T19:32:17.516Z,0.49
2023-03-02T19:34:44.660Z,0.46
2023-03-02T19:37:11.865Z,0.44
2023-03-02T19:39:39.052Z,0.37
2023-03-02T19:42:09.294Z,0.41
2023-03-02T19:44:37.066Z,0.34
2023-03-02T19:47:07.414Z,0.24
2023-03-02T19:49:37.838Z,0.22
2023-03-02T19:52:05.055Z,0.10
2023-03-02T19:54:32.262Z,0.05
2023-03-02T19:56:59.633Z,0.07
2023-03-02T19:59:27.282Z,0.04
2023-03-02T20:01:55.180Z,-0.03
2023-03-02T20:04:22.438Z,-0.04
2023-03-02T20:06:55.052Z,-0.13
2023-03-02T20:09:26.789Z,-0.11
2023-03-02T20:11:54.023Z,-0.14
2023-03-02T20:14:33.298Z,-0.17
2023-03-02T20:17:04.806Z,-0.19
2023-03-02T20:19:32.364Z,-0.21
2023-03-02T20:21:59.502Z,-0.30
2023-03-02T20:24:26.629Z,-0.26
2023-03-02T20:26:53.893Z,-0.31
2023-03-02T20:29:21.188Z,-0.36
2023-03-02T20:31:50.209Z,-0.40
2023-03-02T20:34:17.917Z,-0.53
2023-03-02T20:36:48.340Z,-0.57
2023-03-02T20:39:23.312Z,-0.60
2023-03-02T20:41:53.893Z,-0.65
2023-03-02T20:44:22.751Z,-0.71
2023-03-02T20:46:56.602Z,-0.78
2023-03-02T20:49:26.209Z,-0.86
2023-03-02T20:51:55.612Z,-0.84
2023-03-02T20:54:29.437Z,-0.88
2023-03-02T20:56:56.986Z,-1.02
2023-03-02T20:59:25.409Z,-0.98
2023-03-02T21:01:53.478Z,-1.03
2023-03-02T21:04:22.758Z,-1.05
2023-03-02T21:06:54.030Z,-1.15
2023-03-02T21:09:30.618Z,-1.27
2023-03-02T21:11:59.416Z,-1.41
2023-03-02T21:14:27.472Z,-1.43
2023-03-02T21:16:57.909Z,-1.44
2023-03-02T21:19:29.791Z,-1.46
2023-03-02T21:21:59.284Z,-1.56
2023-03-02T21:24:36.161Z,-1.55
2023-03-02T21:27:04.246Z,-1.57
2023-03-02T21:29:37.434Z,-1.54
2023-03-02T21:32:07.651Z,-1.59
2023-03-02T21:34:38.332Z,-1.63
2023-03-02T21:37:05.924Z,-1.61
2023-03-02T21:39:38.206Z,-1.48
2023-03-02T21:42:11.556Z,-1.58
2023-03-02T21:44:38.879Z,-1.63
2023-03-02T21:47:06.113Z,-1.70
2023-03-02T21:49:33.386Z,-1.70
2023-03-02T21:52:00.525Z,-1.73
2023-03-02T21:54:27.585Z,-1.76
2023-03-02T21:56:55.020Z,-1.76
2023-03-02T21:59:22.262Z,-1.69
2023-03-02T22:01:49.533Z,-1.71
2023-03-02T22:04:16.708Z,-1.81
2023-03-02T22:06:44.045Z,-1.85
2023-03-02T22:09:11.815Z,-1.70
2023-03-02T22:11:38.957Z,-1.69
2023-03-02T22:14:17.730Z,-1.71
2023-03-02T22:16:48.072Z,-1.69
2023-03-02T22:19:18.444Z,-1.68
2023-03-02T22:21:51.280Z,-1.66
2023-03-02T22:24:22.442Z,-1.68
2023-03-02T22:27:02.440Z,-1.63
2023-03-02T22:29:39.254Z,-1.63
2023-03-02T22:32:17.279Z,-1.60
2023-03-02T22:34:46.025Z,-1.62
2023-03-02T22:37:19.102Z,-1.66
2023-03-02T22:39:47.599Z,-1.65
2023-03-02T22:42:21.102Z,-1.60
2023-03-02T22:44:59.155Z,-1.69
2023-03-02T22:47:27.229Z,-1.66
2023-03-02T22:50:17.615Z,-1.67
2023-03-02T22:52:45.358Z,-1.76
2023-03-02T22:55:42.246Z,-1.77
2023-03-02T22:58:42.733Z,-1.74
2023-03-02T23:01:38.799Z,-1.77
2023-03-02T23:04:08.900Z,-1.76
2023-03-02T23:06:42.403Z,-1.79
2023-03-02T23:09:21.948Z,-1.83
2023-03-02T23:11:55.727Z,-1.74
2023-03-02T23:14:30.129Z,-1.69
2023-03-02T23:17:00.535Z,-1.77
2023-03-02T23:19:31.118Z,-1.75
2023-03-02T23:21:58.354Z,-1.82
2023-03-02T23:24:25.861Z,-1.79
2023-03-02T23:26:53.326Z,-1.76
2023-03-02T23:29:21.293Z,-1.73
2023-03-02T23:31:49.032Z,-1.78
2023-03-02T23:34:16.602Z,-1.77
2023-03-02T23:36:43.840Z,-1.84
2023-03-02T23:39:11.684Z,-1.86
2023-03-02T23:41:39.454Z,-1.83
2023-03-02T23:44:08.019Z,-1.84
2023-03-02T23:46:35.405Z,-1.84
2023-03-02T23:49:02.630Z,-1.83
2023-03-02T23:51:30.069Z,-1.87
2023-03-02T23:53:57.142Z,-1.91
2023-03-02T23:56:24.917Z,-1.90
2023-03-02T23:58:51.933Z,-1.93
